Time;durP1;ratioP1;P1;durP2;ratioP2;P2;SDS_P1;SDS_P2;PMS_P1;PMS_P2;Temp;Humidity;BMP_temperature;BMP_pressure;BME280_temperature;BME280_humidity;BME280_pressure;Samples;Min_cycle;Max_cycle;Signal;HPM_P1;HPM_P2
2022/08/26 00:02:05;;;;;;;19.10;7.67;;;22.50;99.90;;;;;;5011966;28;20474;-78
2022/08/26 00:04:34;;;;;;;9.60;6.90;;;22.40;99.90;;;;;;5011614;28;21014;-78
2022/08/26 00:07:00;;;;;;;9.80;7.70;;;22.40;99.90;;;;;;5011698;28;20447;-77
2022/08/26 00:09:27;;;;;;;15.27;7.20;;;22.40;99.90;;;;;;5011643;28;20490;-78
2022/08/26 00:11:54;;;;;;;12.67;7.33;;;22.40;99.90;;;;;;5011576;28;20819;-77
2022/08/26 00:14:21;;;;;;;12.30;7.60;;;22.40;99.90;;;;;;5011662;28;20940;-78
2022/08/26 00:16:48;;;;;;;8.95;7.00;;;22.20;99.90;;;;;;5011638;28;20458;-78
2022/08/26 00:19:15;;;;;;;15.83;7.77;;;22.40;99.90;;;;;;5011875;28;20485;-78
2022/08/26 00:21:43;;;;;;;12.03;7.30;;;22.30;99.90;;;;;;5011959;28;20485;-78
2022/08/26 00:24:10;;;;;;;16.67;7.60;;;22.30;99.90;;;;;;5011725;28;20496;-77
2022/08/26 00:26:38;;;;;;;10.57;7.63;;;22.30;99.90;;;;;;5011439;28;20696;-78
2022/08/26 00:29:05;;;;;;;15.10;7.50;;;22.30;99.90;;;;;;5011690;28;20934;-78
2022/08/26 00:31:32;;;;;;;9.20;7.07;;;22.30;99.90;;;;;;5011852;28;20529;-77
2022/08/26 00:33:59;;;;;;;11.97;7.40;;;22.20;99.90;;;;;;5011508;28;20508;-77
2022/08/26 00:36:25;;;;;;;11.00;7.23;;;22.20;99.90;;;;;;5012453;28;20455;-77
2022/08/26 00:38:53;;;;;;;15.43;8.77;;;22.10;99.90;;;;;;5015067;28;20482;-78
2022/08/26 00:41:20;;;;;;;12.40;7.40;;;22.10;99.90;;;;;;5015462;28;20447;-77
2022/08/26 00:43:47;;;;;;;8.40;6.70;;;22.00;99.90;;;;;;5015473;28;20443;-78
2022/08/26 00:46:19;;;;;;;10.13;6.40;;;22.00;99.90;;;;;;5015234;28;20449;-77
2022/08/26 00:48:49;;;;;;;10.97;6.80;;;22.00;99.90;;;;;;5015220;28;20825;-77
2022/08/26 00:51:20;;;;;;;8.90;5.88;;;21.90;99.90;;;;;;5014884;28;20461;-77
2022/08/26 00:53:52;;;;;;;8.77;6.70;;;21.80;99.90;;;;;;5014969;28;20207;-77
2022/08/26 00:56:24;;;;;;;10.53;7.30;;;21.80;99.90;;;;;;5015009;28;20451;-77
2022/08/26 00:58:51;;;;;;;16.03;7.23;;;21.70;99.90;;;;;;5014926;28;21033;-77
2022/08/26 01:01:18;;;;;;;9.33;6.73;;;21.70;99.90;;;;;;5014920;28;20477;-77
2022/08/26 01:03:46;;;;;;;7.63;6.70;;;21.60;99.90;;;;;;5014666;28;20867;-77
2022/08/26 01:06:15;;;;;;;12.00;6.32;;;21.60;99.90;;;;;;5014779;28;20508;-77
2022/08/26 01:08:41;;;;;;;11.30;7.30;;;21.60;99.90;;;;;;5014988;28;20605;-78
2022/08/26 01:11:09;;;;;;;9.75;7.43;;;21.60;99.90;;;;;;5014707;28;20847;-77
2022/08/26 01:13:37;;;;;;;13.17;7.33;;;21.50;99.90;;;;;;5014722;28;20232;-77
2022/08/26 01:16:08;;;;;;;8.77;6.70;;;21.50;99.90;;;;;;5014686;28;21018;-77
2022/08/26 01:18:34;;;;;;;8.00;7.20;;;21.50;99.90;;;;;;5014786;28;20455;-77
2022/08/26 01:21:10;;;;;;;13.15;7.03;;;21.40;99.90;;;;;;5014578;28;20803;-77
2022/08/26 01:23:41;;;;;;;9.63;7.47;;;21.30;99.90;;;;;;5014710;28;20217;-77
2022/08/26 01:26:12;;;;;;;9.50;7.33;;;21.20;99.90;;;;;;5014210;28;20459;-77
2022/08/26 01:28:40;;;;;;;8.80;7.27;;;21.10;99.90;;;;;;5014482;28;20454;-77
2022/08/26 01:31:11;;;;;;;7.13;6.20;;;21.10;99.90;;;;;;5014453;28;20455;-77
2022/08/26 01:33:43;;;;;;;8.80;6.13;;;21.10;99.90;;;;;;5014700;28;20450;-77
2022/08/26 01:36:11;;;;;;;6.40;5.73;;;21.00;99.90;;;;;;5014243;28;20458;-77
2022/08/26 01:38:40;;;;;;;11.30;6.90;;;21.00;99.90;;;;;;5014342;28;20973;-77
2022/08/26 01:41:09;;;;;;;8.30;6.07;;;20.90;99.90;;;;;;5014325;28;20811;-77
2022/08/26 01:43:38;;;;;;;9.27;5.60;;;20.80;99.90;;;;;;5014396;28;20851;-78
2022/08/26 01:46:06;;;;;;;8.50;7.17;;;20.70;99.90;;;;;;5014085;28;20524;-77
2022/08/26 01:48:34;;;;;;;7.90;6.00;;;20.60;99.90;;;;;;5014071;28;20443;-77
2022/08/26 01:51:03;;;;;;;12.37;6.83;;;20.60;99.90;;;;;;5014065;28;20451;-77
2022/08/26 01:53:30;;;;;;;9.00;7.40;;;20.50;99.90;;;;;;5014234;28;20466;-77
2022/08/26 01:56:01;;;;;;;9.77;8.30;;;20.50;99.90;;;;;;5013608;28;21002;-77
2022/08/26 01:58:32;;;;;;;14.00;8.38;;;20.40;99.90;;;;;;5014229;28;20454;-77
2022/08/26 02:00:59;;;;;;;10.37;7.70;;;20.40;99.90;;;;;;5014104;28;20228;-77
2022/08/26 02:03:27;;;;;;;9.70;8.10;;;20.40;99.90;;;;;;5013867;28;20467;-77
2022/08/26 02:05:56;;;;;;;12.43;8.30;;;20.40;99.90;;;;;;5013438;28;20476;-77
2022/08/26 02:08:27;;;;;;;10.03;7.60;;;20.40;99.90;;;;;;5013632;28;20433;-77
2022/08/26 02:10:55;;;;;;;11.45;7.63;;;20.40;99.90;;;;;;5013979;28;20461;-77
2022/08/26 02:13:26;;;;;;;10.47;7.40;;;20.40;99.90;;;;;;5014676;28;20259;-77
2022/08/26 02:15:53;;;;;;;17.57;8.20;;;20.40;99.90;;;;;;5013326;28;20455;-77
2022/08/26 02:18:21;;;;;;;13.90;9.20;;;20.40;99.90;;;;;;5013615;28;20867;-77
2022/08/26 02:20:48;;;;;;;10.93;9.17;;;20.30;99.90;;;;;;5013159;28;20490;-77
2022/08/26 02:23:14;;;;;;;10.23;8.03;;;20.30;99.90;;;;;;5013593;28;20528;-77
2022/08/26 02:25:48;;;;;;;12.70;8.13;;;20.30;99.90;;;;;;5013209;28;20454;-77
2022/08/26 02:28:16;;;;;;;12.37;8.33;;;20.30;99.90;;;;;;5013438;28;20212;-77
2022/08/26 02:30:45;;;;;;;14.60;8.00;;;20.30;99.90;;;;;;5013176;28;20936;-78
2022/08/26 02:33:12;;;;;;;15.23;9.07;;;20.30;99.90;;;;;;5013142;28;20509;-77
2022/08/26 02:35:40;;;;;;;13.20;8.73;;;20.30;99.90;;;;;;5013106;28;20212;-78
2022/08/26 02:38:07;;;;;;;8.53;7.70;;;20.30;99.90;;;;;;5014024;28;20454;-77
2022/08/26 02:40:39;;;;;;;13.00;8.50;;;20.30;99.90;;;;;;5014023;28;20557;-77
2022/08/26 02:43:06;;;;;;;14.10;9.00;;;20.30;99.90;;;;;;5014076;28;20471;-77
2022/08/26 02:45:33;;;;;;;11.83;8.80;;;20.20;99.90;;;;;;5013859;28;20508;-77
2022/08/26 02:48:08;;;;;;;11.70;8.37;;;20.20;99.90;;;;;;5014005;28;20536;-77
2022/08/26 02:50:34;;;;;;;8.48;7.57;;;20.20;99.90;;;;;;5013062;28;21180;-77
2022/08/26 02:53:01;;;;;;;14.90;9.10;;;20.20;99.90;;;;;;5013046;28;20228;-77
2022/08/26 02:55:28;;;;;;;17.02;8.57;;;20.20;99.90;;;;;;5012785;28;20457;-77
2022/08/26 02:57:55;;;;;;;15.93;8.83;;;20.20;99.90;;;;;;5012858;28;20293;-78
2022/08/26 03:00:22;;;;;;;12.40;9.20;;;20.20;99.90;;;;;;5011867;28;21076;-77
2022/08/26 03:02:49;;;;;;;18.23;9.67;;;20.10;99.90;;;;;;5012784;28;20549;-78
2022/08/26 03:05:18;;;;;;;10.63;9.20;;;20.10;99.90;;;;;;5012279;28;20473;-77
2022/08/26 03:07:45;;;;;;;13.10;9.47;;;20.10;99.90;;;;;;5012611;28;21031;-77
2022/08/26 03:10:12;;;;;;;11.95;9.05;;;20.10;99.90;;;;;;5012495;28;21004;-77
2022/08/26 03:12:39;;;;;;;13.40;8.70;;;20.10;99.90;;;;;;5012436;28;20327;-77
2022/08/26 03:15:07;;;;;;;12.70;10.47;;;20.10;99.90;;;;;;5012027;28;20454;-77
2022/08/26 03:17:34;;;;;;;16.60;9.17;;;20.10;99.90;;;;;;5012435;28;21012;-77
2022/08/26 03:20:01;;;;;;;13.47;9.40;;;20.10;99.90;;;;;;5012464;28;20487;-77
2022/08/26 03:22:29;;;;;;;11.90;9.10;;;20.10;99.90;;;;;;5012307;28;20482;-77
2022/08/26 03:24:56;;;;;;;15.13;10.20;;;20.10;99.90;;;;;;5012164;28;20451;-77
2022/08/26 03:27:23;;;;;;;14.57;9.10;;;20.10;99.90;;;;;;5012070;28;20525;-77
2022/08/26 03:32:33;;;;;;;13.17;9.40;;;20.00;99.90;;;;;;5012278;28;20450;-77
2022/08/26 03:35:00;;;;;;;10.48;9.35;;;19.90;99.90;;;;;;5011969;28;20454;-77
2022/08/26 03:37:27;;;;;;;12.87;8.83;;;19.90;99.90;;;;;;5012229;28;20632;-77
2022/08/26 03:39:55;;;;;;;13.63;9.90;;;19.90;99.90;;;;;;5011886;28;20490;-77
2022/08/26 03:42:22;;;;;;;16.50;10.07;;;19.80;99.90;;;;;;5012164;28;20524;-77
2022/08/26 03:44:50;;;;;;;12.87;9.40;;;19.80;99.90;;;;;;5012099;28;20517;-77
2022/08/26 03:47:17;;;;;;;11.80;9.90;;;19.80;99.90;;;;;;5011876;28;20870;-77
2022/08/26 03:49:43;;;;;;;13.93;9.80;;;19.80;99.90;;;;;;5012324;28;20497;-77
2022/08/26 03:52:10;;;;;;;13.10;10.10;;;19.80;99.90;;;;;;5011723;28;20483;-77
2022/08/26 03:54:37;;;;;;;12.03;9.97;;;19.80;99.90;;;;;;5011798;28;20979;-77
2022/08/26 03:57:05;;;;;;;29.10;10.17;;;19.80;99.90;;;;;;5011846;28;20434;-77
2022/08/26 03:59:31;;;;;;;15.10;10.03;;;19.70;99.90;;;;;;5011925;28;20477;-77
2022/08/26 04:01:58;;;;;;;12.00;9.30;;;19.70;99.90;;;;;;5011721;28;20449;-77
2022/08/26 04:04:25;;;;;;;16.30;9.55;;;19.60;99.90;;;;;;5011779;28;20876;-77
2022/08/26 04:06:57;;;;;;;14.20;8.87;;;19.50;99.90;;;;;;5011567;28;20262;-78
2022/08/26 04:09:23;;;;;;;11.83;8.63;;;19.50;99.90;;;;;;5012643;28;20478;-78
2022/08/26 04:11:50;;;;;;;14.93;8.93;;;19.50;99.90;;;;;;5015998;28;20843;-78
2022/08/26 04:14:22;;;;;;;11.27;8.63;;;19.50;99.90;;;;;;5015956;28;20425;-78
2022/08/26 04:16:50;;;;;;;13.30;10.03;;;19.40;99.90;;;;;;5015513;28;20914;-77
2022/08/26 04:19:18;;;;;;;12.95;10.13;;;19.40;99.90;;;;;;5015896;28;20453;-77
2022/08/26 04:21:46;;;;;;;16.90;10.73;;;19.40;99.90;;;;;;5015151;28;20228;-78
2022/08/26 04:24:15;;;;;;;13.50;9.17;;;19.40;99.90;;;;;;5015855;28;20446;-77
2022/08/26 04:26:43;;;;;;;18.60;10.17;;;19.40;99.90;;;;;;5015656;28;20435;-78
2022/08/26 04:29:12;;;;;;;14.47;9.70;;;19.40;99.90;;;;;;5015828;28;20426;-77
2022/08/26 04:31:41;;;;;;;14.10;10.60;;;19.40;99.90;;;;;;5015289;28;20470;-77
2022/08/26 04:34:08;;;;;;;11.90;10.60;;;19.40;99.90;;;;;;5015293;28;20459;-77
2022/08/26 04:36:35;;;;;;;14.50;10.57;;;19.40;99.90;;;;;;5014946;28;20966;-78
2022/08/26 04:39:03;;;;;;;17.87;10.53;;;19.40;99.90;;;;;;5015429;28;20454;-78
2022/08/26 04:41:31;;;;;;;13.40;10.50;;;19.40;99.90;;;;;;5015335;28;20492;-77
2022/08/26 04:43:58;;;;;;;15.40;10.80;;;19.40;99.90;;;;;;5015445;28;20513;-78
2022/08/26 04:46:25;;;;;;;15.90;9.67;;;19.40;99.90;;;;;;5015002;28;20434;-77
2022/08/26 04:48:54;;;;;;;13.97;9.77;;;19.40;99.90;;;;;;5015336;28;20500;-77
2022/08/26 04:51:26;;;;;;;16.80;10.67;;;19.40;99.90;;;;;;5015003;28;20462;-78
2022/08/26 04:53:55;;;;;;;24.23;10.13;;;19.40;99.90;;;;;;5015019;28;20918;-78
2022/08/26 04:56:23;;;;;;;19.07;11.03;;;19.40;99.90;;;;;;5014743;28;20435;-77
2022/08/26 04:58:49;;;;;;;13.50;11.10;;;19.60;99.90;;;;;;5014886;28;20917;-77
2022/08/26 05:01:17;;;;;;;20.90;11.43;;;19.50;99.90;;;;;;5014450;28;20533;-77
2022/08/26 05:03:43;;;;;;;21.20;11.30;;;19.40;99.90;;;;;;5015048;28;20435;-78
2022/08/26 05:06:12;;;;;;;17.23;10.07;;;19.40;99.90;;;;;;5014678;28;20452;-78
2022/08/26 05:08:39;;;;;;;14.13;10.30;;;19.40;99.90;;;;;;5014881;28;20842;-78
2022/08/26 05:11:06;;;;;;;15.90;11.40;;;19.30;99.90;;;;;;5014612;28;20855;-77
2022/08/26 05:13:34;;;;;;;18.73;10.63;;;19.40;99.90;;;;;;5014570;28;20444;-77
2022/08/26 05:16:03;;;;;;;17.67;10.17;;;19.40;99.90;;;;;;5014287;28;20831;-77
2022/08/26 05:18:30;;;;;;;18.50;10.77;;;19.50;99.90;;;;;;5014655;28;20505;-77
2022/08/26 05:20:57;;;;;;;16.23;9.90;;;19.50;99.90;;;;;;5014312;28;21021;-77
2022/08/26 05:23:25;;;;;;;15.60;12.17;;;19.50;99.90;;;;;;5013608;28;20441;-77
2022/08/26 05:25:53;;;;;;;14.07;11.47;;;19.50;99.90;;;;;;5014642;28;20486;-78
2022/08/26 05:28:20;;;;;;;15.67;12.03;;;19.60;99.90;;;;;;5014102;28;20999;-78
2022/08/26 05:30:48;;;;;;;20.23;11.60;;;19.60;99.90;;;;;;5014607;28;20421;-77
2022/08/26 05:33:15;;;;;;;14.67;12.10;;;19.70;99.90;;;;;;5014310;28;20576;-77
2022/08/26 05:35:43;;;;;;;14.37;11.40;;;19.80;99.90;;;;;;5014116;28;20421;-78
2022/08/26 05:38:14;;;;;;;22.73;12.35;;;19.80;99.90;;;;;;5014151;28;20479;-78
2022/08/26 05:40:44;;;;;;;13.67;10.80;;;19.90;99.90;;;;;;5014109;28;20219;-78
2022/08/26 05:43:12;;;;;;;19.03;11.53;;;20.00;99.90;;;;;;5013885;28;20532;-78
2022/08/26 05:45:40;;;;;;;20.37;11.30;;;20.10;99.90;;;;;;5014318;28;20425;-78
2022/08/26 05:48:07;;;;;;;14.73;10.93;;;20.30;99.90;;;;;;5014125;28;20454;-78
2022/08/26 05:50:37;;;;;;;19.80;10.77;;;20.60;99.90;;;;;;5013998;28;20437;-78
2022/08/26 05:53:05;;;;;;;12.80;10.97;;;20.80;99.90;;;;;;5013744;28;20639;-78
2022/08/26 05:55:32;;;;;;;12.07;9.60;;;20.90;99.90;;;;;;5013460;28;20451;-78
2022/08/26 05:58:00;;;;;;;12.83;9.50;;;21.10;99.90;;;;;;5013945;28;20459;-78
2022/08/26 06:00:28;;;;;;;18.08;10.30;;;21.30;99.90;;;;;;5014019;28;20467;-79
2022/08/26 06:02:54;;;;;;;14.80;8.90;;;21.40;99.90;;;;;;5013941;28;20667;-79
2022/08/26 06:05:21;;;;;;;13.30;9.70;;;21.60;99.90;;;;;;5013731;28;20467;-79
2022/08/26 06:10:32;;;;;;;15.13;10.88;;;22.40;99.90;;;;;;5014849;28;20553;-77
2022/08/26 06:13:00;;;;;;;16.60;11.60;;;22.70;99.90;;;;;;5014020;28;20223;-78
2022/08/26 06:15:27;;;;;;;22.10;12.17;;;22.90;99.90;;;;;;5013604;28;20451;-78
2022/08/26 06:17:54;;;;;;;16.97;10.70;;;23.10;99.90;;;;;;5013627;28;20450;-78
2022/08/26 06:20:20;;;;;;;16.70;10.87;;;23.20;99.90;;;;;;5013379;28;20904;-78
2022/08/26 06:25:40;;;;;;;16.00;11.20;;;23.10;99.90;;;;;;5013538;28;20410;-78
2022/08/26 06:28:08;;;;;;;19.57;11.73;;;23.00;99.90;;;;;;5013570;28;20550;-78
2022/08/26 06:30:40;;;;;;;17.50;11.93;;;22.80;99.90;;;;;;5013463;28;20928;-78
2022/08/26 06:33:06;;;;;;;20.60;11.20;;;22.60;99.90;;;;;;5012891;28;21220;-78
2022/08/26 06:35:37;;;;;;;14.55;11.52;;;22.50;99.90;;;;;;5013656;28;20508;-79
2022/08/26 06:38:04;;;;;;;15.33;12.10;;;22.50;99.90;;;;;;5016831;28;20200;-77
2022/08/26 06:40:30;;;;;;;19.90;11.80;;;22.40;99.90;;;;;;5013420;28;20447;-78
2022/08/26 06:42:57;;;;;;;18.53;11.50;;;22.40;99.90;;;;;;5013373;28;20533;-77
2022/08/26 06:45:25;;;;;;;17.10;10.40;;;22.40;99.90;;;;;;5013081;28;20462;-78
2022/08/26 06:47:52;;;;;;;19.77;11.60;;;22.50;99.90;;;;;;5013248;28;20536;-78
2022/08/26 06:50:19;;;;;;;16.17;9.98;;;22.50;99.90;;;;;;5013085;28;20550;-78
2022/08/26 06:52:45;;;;;;;17.00;11.43;;;22.50;99.90;;;;;;5013083;28;20236;-78
2022/08/26 06:55:12;;;;;;;17.53;10.13;;;22.60;99.90;;;;;;5012810;28;20529;-78
2022/08/26 06:57:39;;;;;;;19.70;10.33;;;22.60;99.90;;;;;;5012874;28;20450;-78
2022/08/26 07:00:08;;;;;;;22.07;11.13;;;22.60;99.90;;;;;;5012632;28;21013;-78
2022/08/26 07:02:37;;;;;;;26.80;11.37;;;22.50;99.90;;;;;;5012947;28;20494;-78
2022/08/26 07:05:05;;;;;;;15.93;10.47;;;22.50;99.90;;;;;;5012826;28;20505;-78
2022/08/26 07:07:31;;;;;;;15.40;10.67;;;22.40;99.90;;;;;;5012793;28;20502;-77
2022/08/26 07:09:58;;;;;;;13.03;9.63;;;22.40;99.90;;;;;;5012448;28;20514;-78
2022/08/26 07:12:25;;;;;;;13.50;9.97;;;22.50;99.90;;;;;;5012419;28;20467;-78
2022/08/26 07:14:52;;;;;;;12.80;9.80;;;22.50;99.90;;;;;;5012370;28;20533;-78
2022/08/26 07:17:19;;;;;;;11.60;9.67;;;22.60;99.90;;;;;;5012870;28;20546;-78
2022/08/26 07:19:47;;;;;;;13.20;9.33;;;22.70;99.90;;;;;;5012407;28;20505;-78
2022/08/26 07:22:14;;;;;;;15.27;10.00;;;22.90;99.90;;;;;;5012224;28;20582;-78
2022/08/26 07:24:41;;;;;;;14.03;9.83;;;23.00;99.90;;;;;;5012691;28;20494;-78
2022/08/26 07:27:11;;;;;;;25.08;9.85;;;23.10;99.90;;;;;;5012082;28;20458;-78
2022/08/26 07:29:39;;;;;;;15.30;10.13;;;23.20;99.90;;;;;;5012822;28;20212;-77
2022/08/26 07:32:06;;;;;;;11.57;9.37;;;23.30;99.90;;;;;;5012548;28;20478;-78
2022/08/26 07:34:33;;;;;;;14.37;9.93;;;23.40;99.90;;;;;;5012313;28;20451;-78
2022/08/26 07:37:01;;;;;;;12.40;8.40;;;23.40;99.90;;;;;;5011977;28;20463;-78
2022/08/26 07:39:28;;;;;;;14.73;10.17;;;23.50;99.90;;;;;;5011907;28;20459;-78
2022/08/26 07:41:55;;;;;;;18.98;9.70;;;23.60;99.90;;;;;;5012244;28;20559;-78
2022/08/26 07:44:22;;;;;;;14.85;9.77;;;23.70;99.90;;;;;;5012350;28;20262;-78
2022/08/26 07:46:50;;;;;;;11.20;8.80;;;23.80;99.90;;;;;;5011659;28;20266;-78
2022/08/26 07:49:17;;;;;;;25.85;10.18;;;23.90;99.90;;;;;;5011999;28;20453;-79
2022/08/26 07:51:44;;;;;;;12.35;9.02;;;24.10;99.90;;;;;;5011889;28;20235;-79
2022/08/26 07:54:12;;;;;;;11.97;8.40;;;24.30;99.90;;;;;;5011672;28;20211;-78
2022/08/26 07:56:39;;;;;;;15.48;9.73;;;24.50;99.90;;;;;;5012032;28;20875;-78
2022/08/26 07:59:05;;;;;;;17.83;9.33;;;24.60;99.90;;;;;;5011787;28;20218;-79
2022/08/26 08:01:32;;;;;;;13.50;9.57;;;24.80;99.90;;;;;;5011903;28;21033;-78
2022/08/26 08:03:59;;;;;;;16.80;9.70;;;24.90;99.90;;;;;;5011780;28;20462;-78
2022/08/26 08:06:26;;;;;;;17.03;9.10;;;25.00;99.90;;;;;;5011605;28;20506;-78
2022/08/26 08:08:54;;;;;;;17.70;10.20;;;25.10;99.90;;;;;;5011601;28;20931;-78
2022/08/26 08:11:22;;;;;;;10.83;8.40;;;25.30;99.90;;;;;;5011694;28;20997;-78
2022/08/26 08:13:50;;;;;;;11.00;8.97;;;25.70;99.90;;;;;;5011772;28;20830;-78
2022/08/26 08:16:17;;;;;;;10.83;8.57;;;26.00;99.90;;;;;;5011637;28;20489;-78
2022/08/26 08:18:44;;;;;;;17.33;9.50;;;26.30;99.90;;;;;;5011726;28;20589;-78
2022/08/26 08:21:11;;;;;;;15.67;9.80;;;26.40;99.90;;;;;;5011535;28;20998;-78
2022/08/26 08:23:38;;;;;;;18.13;8.70;;;26.80;99.90;;;;;;5012035;28;20451;-78
2022/08/26 08:26:07;;;;;;;24.90;9.97;;;27.00;99.90;;;;;;5011526;28;20504;-78
2022/08/26 08:28:36;;;;;;;15.67;9.00;;;27.20;99.90;;;;;;5011839;28;20457;-78
2022/08/26 08:31:03;;;;;;;12.70;9.40;;;27.00;99.90;;;;;;5011759;28;20506;-77
2022/08/26 08:33:30;;;;;;;18.63;9.40;;;27.30;99.90;;;;;;5011481;28;20487;-78
2022/08/26 08:35:57;;;;;;;16.13;9.60;;;27.40;99.90;;;;;;5011226;28;20845;-78
2022/08/26 08:38:24;;;;;;;18.23;8.90;;;27.60;99.90;;;;;;5010631;28;20455;-78
2022/08/26 08:40:51;;;;;;;17.33;9.27;;;27.80;99.90;;;;;;5011641;28;20493;-78
2022/08/26 08:43:29;;;;;;;19.30;9.43;;;28.10;99.90;;;;;;5011608;28;20470;-78
2022/08/26 08:46:00;;;;;;;14.00;8.33;;;28.30;99.90;;;;;;5011371;28;20239;-78
2022/08/26 08:48:30;;;;;;;14.83;8.60;;;28.70;99.90;;;;;;5011417;28;20690;-78
2022/08/26 08:51:05;;;;;;;11.93;8.93;;;29.20;99.90;;;;;;5011341;28;20879;-78
2022/08/26 08:53:35;;;;;;;21.27;9.10;;;29.70;99.90;;;;;;5011451;28;20982;-78
2022/08/26 08:56:12;;;;;;;9.93;8.20;;;30.10;99.90;;;;;;5011136;28;20938;-78
2022/08/26 08:58:52;;;;;;;14.00;9.30;;;30.50;99.90;;;;;;5014153;28;20446;-78
2022/08/26 09:01:35;;;;;;;14.10;8.20;;;30.90;99.90;;;;;;5014964;28;20493;-78
2022/08/26 09:04:17;;;;;;;15.80;8.57;;;31.20;99.90;;;;;;5015046;28;20614;-78
2022/08/26 09:06:45;;;;;;;11.73;8.07;;;31.50;99.90;;;;;;5014650;28;20451;-79
2022/08/26 09:09:23;;;;;;;16.37;8.90;;;31.20;99.90;;;;;;5014602;28;20459;-79
2022/08/26 09:11:50;;;;;;;21.43;9.43;;;31.00;99.90;;;;;;5014951;28;20461;-79
2022/08/26 09:14:17;;;;;;;13.67;8.40;;;30.70;99.90;;;;;;5014741;28;20446;-79
2022/08/26 09:16:50;;;;;;;15.87;9.20;;;30.60;99.90;;;;;;5014937;28;20461;-79
2022/08/26 09:19:25;;;;;;;13.17;9.00;;;30.40;99.90;;;;;;5014686;28;20524;-79
2022/08/26 09:21:55;;;;;;;14.60;9.00;;;29.90;99.90;;;;;;5014697;28;20511;-79
2022/08/26 09:24:22;;;;;;;16.50;8.03;;;29.80;99.90;;;;;;5014717;28;20455;-79
2022/08/26 09:26:48;;;;;;;14.60;8.67;;;29.80;99.90;;;;;;5014418;28;20459;-79
2022/08/26 09:29:22;;;;;;;20.67;8.07;;;29.90;99.90;;;;;;5015023;28;20808;-79
2022/08/26 09:31:50;;;;;;;18.50;8.10;;;30.10;99.90;;;;;;5014947;28;20474;-79
2022/08/26 09:34:19;;;;;;;11.37;7.80;;;30.20;99.90;;;;;;5014273;28;20797;-79
2022/08/26 09:36:48;;;;;;;16.38;7.85;;;30.30;99.90;;;;;;5013957;28;20946;-79
2022/08/26 09:39:31;;;;;;;13.03;8.37;;;30.30;99.90;;;;;;5016879;28;20291;-81
2022/08/26 09:42:03;;;;;;;14.60;9.00;;;30.20;99.90;;;;;;5016897;28;20502;-82
2022/08/26 09:44:31;;;;;;;11.60;8.40;;;30.20;99.90;;;;;;5016277;28;20498;-80
2022/08/26 09:47:02;;;;;;;14.83;8.53;;;30.20;99.90;;;;;;5016626;28;20461;-81
2022/08/26 09:49:32;;;;;;;14.43;8.25;;;30.50;99.90;;;;;;5016728;28;20454;-81
2022/08/26 09:52:21;;;;;;;10.77;8.17;;;30.70;99.90;;;;;;5016333;28;20235;-80
2022/08/26 09:55:02;;;;;;;14.00;8.27;;;31.00;99.90;;;;;;5015417;28;20912;-81
2022/08/26 09:57:30;;;;;;;15.13;8.30;;;30.80;99.90;;;;;;5016483;28;20953;-80
2022/08/26 09:59:59;;;;;;;16.63;9.13;;;30.70;99.90;;;;;;5016694;28;20273;-80
2022/08/26 10:02:40;;;;;;;14.03;8.00;;;31.00;99.90;;;;;;5016380;28;20486;-81
2022/08/26 10:05:14;;;;;;;14.40;8.70;;;31.50;99.90;;;;;;5016031;28;20494;-81
2022/08/26 10:07:45;;;;;;;19.13;8.68;;;32.00;99.90;;;;;;5016581;28;20441;-80
2022/08/26 10:10:19;;;;;;;9.60;8.47;;;32.40;99.90;;;;;;5016149;28;20208;-80
2022/08/26 10:12:53;;;;;;;14.25;8.90;;;32.70;99.90;;;;;;5015920;28;20482;-80
2022/08/26 10:15:23;;;;;;;11.57;8.70;;;33.10;99.90;;;;;;5015721;28;20212;-80
2022/08/26 10:17:57;;;;;;;18.57;8.43;;;33.50;99.90;;;;;;5015056;28;20513;-80
2022/08/26 10:20:28;;;;;;;15.40;9.00;;;33.80;99.30;;;;;;5015392;28;20489;-80
2022/08/26 10:22:59;;;;;;;15.40;8.87;;;33.80;99.10;;;;;;5015676;28;20925;-80
2022/08/26 10:25:31;;;;;;;14.63;8.87;;;33.90;99.00;;;;;;5016028;28;20504;-81
2022/08/26 10:28:03;;;;;;;18.40;8.60;;;34.00;98.30;;;;;;5016304;28;20458;-80
2022/08/26 10:30:36;;;;;;;10.80;8.17;;;34.10;98.10;;;;;;5015238;28;20447;-78
2022/08/26 10:33:07;;;;;;;14.43;7.95;;;34.30;97.90;;;;;;5013337;28;20462;-79
2022/08/26 10:35:36;;;;;;;14.53;8.70;;;34.40;97.70;;;;;;5013865;28;20208;-81
2022/08/26 10:38:10;;;;;;;9.30;8.40;;;34.50;96.80;;;;;;5013722;28;20880;-79
2022/08/26 10:40:48;;;;;;;7.70;6.90;;;34.60;96.60;;;;;;5013738;28;20453;-80
2022/08/26 10:43:20;;;;;;;13.47;7.90;;;34.70;95.60;;;;;;5013886;28;20231;-81
2022/08/26 10:45:50;;;;;;;9.73;6.75;;;34.80;95.30;;;;;;5013800;28;20516;-80
2022/08/26 10:48:24;;;;;;;9.30;6.93;;;35.10;94.80;;;;;;5013208;28;20598;-78
2022/08/26 10:50:51;;;;;;;12.17;7.53;;;35.30;94.10;;;;;;5012873;28;20553;-77
2022/08/26 10:53:23;;;;;;;11.73;6.90;;;35.40;93.90;;;;;;5012997;28;20497;-79
2022/08/26 10:55:59;;;;;;;13.90;7.03;;;34.70;93.40;;;;;;5012978;28;20958;-79
2022/08/26 10:58:48;;;;;;;6.60;5.60;;;34.50;93.40;;;;;;5013607;28;20457;-79
2022/08/26 11:04:16;;;;;;;7.33;5.20;;;34.80;92.50;;;;;;5013463;28;20430;-80
2022/08/26 11:06:44;;;;;;;8.43;6.10;;;35.00;91.70;;;;;;5013892;28;20446;-79
2022/08/26 11:09:32;;;;;;;10.67;7.00;;;35.30;91.90;;;;;;5013060;28;20550;-79
2022/08/26 11:11:59;;;;;;;9.07;6.50;;;35.50;91.80;;;;;;5012662;28;20474;-79
2022/08/26 11:14:34;;;;;;;12.30;5.40;;;35.70;90.90;;;;;;5013085;28;20451;-79
2022/08/26 11:17:01;;;;;;;7.18;6.25;;;35.60;90.30;;;;;;5012533;28;20532;-77
2022/08/26 11:19:58;;;;;;;7.17;6.23;;;35.70;90.60;;;;;;5013061;28;20747;-79
2022/08/26 11:22:28;;;;;;;6.30;5.30;;;36.00;90.30;;;;;;5012726;28;20873;-79
2022/08/26 11:25:11;;;;;;;14.43;5.03;;;36.20;89.20;;;;;;5012875;28;20442;-79
2022/08/26 11:28:05;;;;;;;12.00;5.53;;;36.30;88.20;;;;;;5013050;28;20951;-79
2022/08/26 11:30:48;;;;;;;8.07;5.63;;;36.30;86.50;;;;;;5012337;28;20973;-79
2022/08/26 11:33:57;;;;;;;7.20;5.70;;;35.90;87.50;;;;;;5012696;28;20574;-79
2022/08/26 11:37:00;;;;;;;7.17;5.33;;;36.10;87.40;;;;;;5012117;28;20562;-80
2022/08/26 11:39:33;;;;;;;9.00;5.50;;;36.20;85.70;;;;;;5010299;28;20439;-80
2022/08/26 11:42:06;;;;;;;7.85;4.97;;;36.10;86.60;;;;;;5009789;28;20879;-78
2022/08/26 11:44:39;;;;;;;5.67;4.97;;;36.20;85.40;;;;;;5011106;28;20448;-78
2022/08/26 11:47:09;;;;;;;6.53;5.87;;;36.10;86.40;;;;;;5011949;28;20478;-78
2022/08/26 11:49:36;;;;;;;8.70;6.18;;;36.40;87.00;;;;;;5012558;28;20481;-77
2022/08/26 11:52:17;;;;;;;9.90;6.57;;;36.90;86.10;;;;;;5012515;28;20262;-78
2022/08/26 11:54:59;;;;;;;7.67;6.63;;;37.50;84.80;;;;;;5011912;28;20876;-78
2022/08/26 11:57:27;;;;;;;10.23;6.80;;;37.80;85.50;;;;;;5012118;28;20450;-79
2022/08/26 11:59:55;;;;;;;5.70;5.10;;;38.20;83.10;;;;;;5012042;28;20459;-79
2022/08/26 12:02:22;;;;;;;9.03;6.63;;;38.40;82.50;;;;;;5011669;28;20500;-78
2022/08/26 12:04:51;;;;;;;10.53;7.47;;;38.70;82.40;;;;;;5012038;28;20501;-79
2022/08/26 12:07:23;;;;;;;9.80;7.53;;;38.80;80.50;;;;;;5011917;28;21016;-77
2022/08/26 12:09:53;;;;;;;9.80;7.60;;;38.50;80.90;;;;;;5012023;28;20454;-78
2022/08/26 12:12:24;;;;;;;8.73;6.50;;;38.30;80.80;;;;;;5012295;28;20566;-78
2022/08/26 12:15:05;;;;;;;7.10;6.47;;;38.00;79.60;;;;;;5011558;28;20449;-79
2022/08/26 12:17:32;;;;;;;8.75;6.50;;;37.70;81.40;;;;;;5011849;28;20225;-78
2022/08/26 12:19:59;;;;;;;9.43;7.80;;;37.90;81.30;;;;;;5011933;28;20216;-78
2022/08/26 12:22:29;;;;;;;8.03;6.67;;;37.40;80.80;;;;;;5011507;28;20892;-78
2022/08/26 12:24:58;;;;;;;8.10;7.07;;;37.00;81.60;;;;;;5011434;28;20459;-78
2022/08/26 12:27:27;;;;;;;10.80;7.50;;;37.10;81.40;;;;;;5011540;28;21019;-78
2022/08/26 12:30:02;;;;;;;11.43;7.67;;;37.10;82.30;;;;;;5011813;28;20497;-79
2022/08/26 12:32:31;;;;;;;10.67;8.17;;;37.40;82.00;;;;;;5014627;28;20471;-78
2022/08/26 12:35:01;;;;;;;10.20;6.93;;;37.20;80.90;;;;;;5015520;28;20538;-79
2022/08/26 12:37:36;;;;;;;7.57;6.80;;;36.70;80.10;;;;;;5015706;28;20962;-79
2022/08/26 12:40:27;;;;;;;10.43;7.03;;;36.30;81.70;;;;;;5016504;28;20524;-80
2022/08/26 12:42:55;;;;;;;8.47;7.57;;;36.50;81.30;;;;;;5017343;28;20518;-79
2022/08/26 12:45:28;;;;;;;9.80;7.70;;;36.80;82.20;;;;;;5015257;28;20954;-79
2022/08/26 12:47:58;;;;;;;12.63;6.97;;;36.50;81.60;;;;;;5015121;28;20501;-79
2022/08/26 12:50:28;;;;;;;26.67;6.60;;;36.70;81.80;;;;;;5015627;28;20584;-78
2022/08/26 12:53:00;;;;;;;26.50;7.10;;;36.20;81.00;;;;;;5015729;28;20471;-79
2022/08/26 12:55:37;;;;;;;20.77;6.83;;;35.00;83.00;;;;;;5016809;28;20459;-79
2022/08/26 12:58:22;;;;;;;60.87;8.50;;;34.10;85.00;;;;;;5017587;28;20528;-79
2022/08/26 13:00:50;;;;;;;16.43;7.40;;;33.20;87.20;;;;;;5017717;28;20458;-79